createdAt,value
2019-03-01T00:01:21.749Z,14.07
2019-03-01T00:04:40.644Z,13.40
2019-03-01T00:08:11.729Z,15.70
2019-03-01T00:11:33.189Z,14.27
2019-03-01T00:14:55.048Z,14.47
2019-03-01T00:18:31.116Z,14.67
2019-03-01T00:21:31.980Z,14.47
2019-03-01T00:25:12.088Z,15.17
2019-03-01T00:28:21.058Z,13.50
2019-03-01T00:31:47.297Z,14.13
2019-03-01T00:35:02.715Z,14.87
2019-03-01T00:38:26.763Z,14.63
2019-03-01T00:41:18.162Z,14.07
2019-03-01T00:44:41.129Z,13.47
2019-03-01T00:47:12.606Z,13.23
2019-03-01T00:49:44.218Z,13.90
2019-03-01T00:52:15.506Z,14.50
2019-03-01T00:54:46.754Z,16.17
2019-03-01T00:57:18.071Z,16.47
2019-03-01T00:59:49.280Z,16.33
2019-03-01T01:02:20.530Z,15.10
2019-03-01T01:04:51.753Z,18.70
2019-03-01T01:07:22.923Z,15.20
2019-03-01T01:09:54.189Z,17.43
2019-03-01T01:12:25.435Z,15.90
2019-03-01T01:14:56.742Z,16.30
2019-03-01T01:17:27.952Z,16.13
2019-03-01T01:19:59.309Z,17.87
2019-03-01T01:22:31.928Z,17.90
2019-03-01T01:25:03.181Z,17.17
2019-03-01T01:27:34.443Z,18.90
2019-03-01T01:30:06.661Z,20.50
2019-03-01T01:32:37.958Z,19.43
2019-03-01T01:35:09.242Z,18.70
2019-03-01T01:37:40.495Z,18.97
2019-03-01T01:40:12.417Z,18.37
2019-03-01T01:42:46.326Z,18.93
2019-03-01T01:45:23.092Z,17.70
2019-03-01T01:47:54.627Z,18.50
2019-03-01T01:50:25.982Z,16.97
2019-03-01T01:52:57.217Z,18.03
2019-03-01T01:55:28.468Z,17.83
2019-03-01T01:57:59.740Z,20.40
2019-03-01T02:00:30.880Z,19.50
2019-03-01T02:03:02.275Z,18.30
2019-03-01T02:05:33.637Z,19.97
2019-03-01T02:08:04.960Z,17.50
2019-03-01T02:10:36.389Z,18.13
2019-03-01T02:13:07.642Z,18.47
2019-03-01T02:15:38.881Z,19.27
2019-03-01T02:18:14.486Z,20.07
2019-03-01T02:20:45.771Z,16.50
2019-03-01T02:23:17.046Z,18.67
2019-03-01T02:25:48.210Z,18.23
2019-03-01T02:28:19.481Z,19.30
2019-03-01T02:30:51.116Z,20.97
2019-03-01T02:33:22.347Z,20.20
2019-03-01T02:35:53.541Z,18.33
2019-03-01T02:38:24.785Z,18.03
2019-03-01T02:40:56.075Z,18.87
2019-03-01T02:43:27.338Z,19.60
2019-03-01T02:45:58.595Z,18.60
2019-03-01T02:48:29.911Z,19.37
2019-03-01T02:51:01.181Z,17.87
2019-03-01T02:53:32.469Z,18.67
2019-03-01T02:56:03.684Z,17.80
2019-03-01T02:58:34.938Z,19.40
2019-03-01T03:01:06.211Z,20.20
2019-03-01T03:03:37.504Z,19.70
2019-03-01T03:06:30.572Z,18.90
2019-03-01T03:09:01.859Z,18.80
2019-03-01T03:11:33.125Z,18.30
2019-03-01T03:14:04.518Z,17.23
2019-03-01T03:16:35.731Z,16.83
2019-03-01T03:19:07.008Z,18.90
2019-03-01T03:21:38.264Z,19.60
2019-03-01T03:24:09.550Z,19.20
2019-03-01T03:26:40.847Z,18.90
2019-03-01T03:29:12.066Z,19.57
2019-03-01T03:31:43.398Z,18.53
2019-03-01T03:34:14.692Z,19.40
2019-03-01T03:37:05.026Z,18.63
2019-03-01T03:39:36.282Z,17.87
2019-03-01T03:42:07.837Z,18.60
2019-03-01T03:44:39.174Z,17.70
2019-03-01T03:47:10.506Z,17.90
2019-03-01T03:49:41.708Z,20.10
2019-03-01T03:52:13.025Z,16.87
2019-03-01T03:54:44.314Z,19.00
2019-03-01T03:57:15.564Z,17.80
2019-03-01T03:59:46.845Z,19.97
2019-03-01T04:02:18.236Z,19.07
2019-03-01T04:04:49.482Z,18.83
2019-03-01T04:07:20.892Z,19.07
2019-03-01T04:09:52.360Z,18.47
2019-03-01T04:12:23.661Z,18.23
2019-03-01T04:14:55.089Z,18.53
2019-03-01T04:17:26.293Z,19.37
2019-03-01T04:19:57.625Z,17.83
2019-03-01T04:22:29.110Z,16.93
2019-03-01T04:25:00.385Z,17.00
2019-03-01T04:27:31.695Z,17.90
2019-03-01T04:30:03.035Z,19.23
2019-03-01T04:32:34.342Z,17.77
2019-03-01T04:35:05.811Z,15.27
2019-03-01T04:37:37.105Z,15.77
2019-03-01T04:40:27.335Z,17.07
2019-03-01T04:42:58.629Z,15.50
2019-03-01T04:45:29.990Z,17.80
2019-03-01T04:48:01.273Z,15.27
2019-03-01T04:50:32.608Z,16.80
2019-03-01T04:53:03.787Z,18.07
2019-03-01T04:55:35.099Z,16.33
2019-03-01T04:58:06.377Z,15.90
2019-03-01T05:00:37.648Z,16.70
2019-03-01T05:03:08.864Z,16.13
2019-03-01T05:05:40.087Z,17.23
2019-03-01T05:08:11.389Z,18.60
2019-03-01T05:10:42.619Z,17.23
2019-03-01T05:13:13.873Z,18.50
2019-03-01T05:15:45.078Z,15.90
2019-03-01T05:18:16.315Z,19.40
2019-03-01T05:20:47.594Z,18.17
2019-03-01T05:23:18.814Z,17.83
2019-03-01T05:25:50.025Z,19.23
2019-03-01T05:28:21.253Z,19.90
2019-03-01T05:30:52.579Z,18.20
2019-03-01T05:33:23.817Z,19.83
2019-03-01T05:35:55.086Z,19.23
2019-03-01T05:38:26.236Z,19.90
2019-03-01T05:40:57.524Z,19.20
2019-03-01T05:43:28.750Z,20.60
2019-03-01T05:46:00.066Z,17.50
2019-03-01T05:48:50.290Z,18.33
2019-03-01T05:51:21.595Z,22.17
2019-03-01T05:53:53.018Z,20.27
2019-03-01T05:56:24.326Z,19.27
2019-03-01T05:59:13.085Z,19.80
2019-03-01T06:02:45.486Z,19.83
2019-03-01T06:05:22.196Z,21.27
2019-03-01T06:08:43.541Z,19.47
2019-03-01T06:11:45.220Z,19.90
2019-03-01T06:15:05.060Z,21.03
2019-03-01T06:18:31.839Z,25.00
2019-03-01T06:21:55.172Z,22.87
2019-03-01T06:25:22.990Z,26.53
2019-03-01T06:28:39.851Z,28.40
2019-03-01T06:32:22.127Z,25.50
2019-03-01T06:36:00.610Z,26.03
2019-03-01T06:39:55.018Z,28.00
2019-03-01T06:42:55.540Z,27.23
2019-03-01T06:46:21.856Z,28.10
2019-03-01T06:49:14.621Z,27.50
2019-03-01T06:51:45.927Z,28.00
2019-03-01T06:54:17.164Z,27.83
2019-03-01T06:56:48.409Z,31.70
2019-03-01T06:59:19.634Z,30.13
2019-03-01T07:01:50.951Z,30.20
2019-03-01T07:04:22.606Z,30.30
2019-03-01T07:06:54.016Z,30.17
2019-03-01T07:09:25.320Z,27.80
2019-03-01T07:11:56.750Z,29.93
2019-03-01T07:14:28.037Z,28.60
2019-03-01T07:16:59.254Z,31.73
2019-03-01T07:19:30.526Z,35.87
2019-03-01T07:22:01.859Z,34.30
2019-03-01T07:24:33.122Z,34.63
2019-03-01T07:27:04.466Z,33.70
2019-03-01T07:29:35.775Z,34.63
2019-03-01T07:32:07.062Z,38.80
2019-03-01T07:34:38.262Z,39.20
2019-03-01T07:37:09.556Z,38.17
2019-03-01T07:39:40.864Z,40.80
2019-03-01T07:42:12.262Z,42.30
2019-03-01T07:44:43.399Z,46.70
2019-03-01T07:47:14.735Z,49.50
2019-03-01T07:49:46.050Z,47.10
2019-03-01T07:52:17.373Z,48.27
2019-03-01T07:54:49.498Z,48.27
2019-03-01T07:57:21.586Z,51.80
2019-03-01T07:59:52.802Z,50.57
2019-03-01T08:02:45.352Z,53.97
2019-03-01T08:05:16.528Z,57.37
2019-03-01T08:07:55.747Z,65.00
2019-03-01T08:10:22.826Z,62.83
2019-03-01T08:12:54.011Z,64.27
2019-03-01T08:15:25.261Z,63.80
2019-03-01T08:17:56.588Z,69.60
2019-03-01T08:20:30.336Z,71.90
2019-03-01T08:23:01.713Z,67.97
2019-03-01T08:25:33.239Z,64.97
2019-03-01T08:28:04.578Z,63.40
2019-03-01T08:30:35.968Z,61.27
2019-03-01T08:33:07.943Z,65.73
2019-03-01T08:35:39.312Z,69.77
2019-03-01T08:38:12.769Z,62.40
2019-03-01T08:40:46.690Z,61.10
2019-03-01T08:43:17.185Z,57.80
2019-03-01T08:45:48.926Z,60.90
2019-03-01T08:48:30.572Z,59.87
2019-03-01T08:51:00.667Z,61.13
2019-03-01T08:53:31.872Z,53.40
2019-03-01T08:56:03.172Z,59.63
2019-03-01T08:58:37.742Z,53.97
2019-03-01T09:01:09.796Z,54.43
2019-03-01T09:03:48.442Z,50.53
2019-03-01T09:06:19.631Z,49.50
2019-03-01T09:08:51.176Z,52.70
2019-03-01T09:11:22.580Z,51.47
2019-03-01T09:13:54.091Z,49.73
2019-03-01T09:16:25.423Z,46.67
2019-03-01T09:18:56.798Z,52.90
2019-03-01T09:21:28.350Z,42.37
2019-03-01T09:23:59.885Z,48.80
2019-03-01T09:26:31.131Z,48.70
2019-03-01T09:29:02.504Z,46.53
2019-03-01T09:31:33.876Z,43.73
2019-03-01T09:34:06.259Z,41.47
2019-03-01T09:36:44.742Z,42.60
2019-03-01T09:39:18.038Z,40.90
2019-03-01T09:41:51.562Z,44.53
2019-03-01T09:44:22.766Z,42.60
2019-03-01T09:46:54.129Z,43.37
2019-03-01T09:49:27.165Z,43.33
2019-03-01T09:51:58.455Z,46.67
2019-03-01T09:54:29.766Z,42.00
2019-03-01T09:57:01.083Z,44.80
2019-03-01T09:59:32.367Z,42.07
2019-03-01T10:02:03.666Z,42.60
2019-03-01T10:04:35.103Z,42.70
2019-03-01T10:07:11.199Z,46.37
2019-03-01T10:09:45.740Z,39.33
2019-03-01T10:12:17.055Z,41.07
2019-03-01T10:14:48.287Z,42.63
2019-03-01T10:17:19.570Z,38.40
2019-03-01T10:19:50.772Z,39.03
2019-03-01T10:22:22.066Z,38.20
2019-03-01T10:24:53.312Z,40.17
2019-03-01T10:27:24.571Z,38.63
2019-03-01T10:29:55.870Z,37.07
2019-03-01T10:32:28.284Z,37.17
2019-03-01T10:34:59.550Z,35.33
2019-03-01T10:37:30.784Z,35.80
2019-03-01T10:40:02.088Z,32.60
2019-03-01T10:42:33.366Z,32.97
2019-03-01T10:45:04.774Z,32.80
2019-03-01T10:47:35.962Z,32.23
2019-03-01T10:50:07.967Z,32.13
2019-03-01T10:52:39.338Z,31.80
2019-03-01T10:55:13.549Z,30.70
2019-03-01T10:57:44.841Z,32.93
2019-03-01T11:00:20.313Z,34.40
2019-03-01T11:02:51.747Z,33.03
2019-03-01T11:05:23.239Z,32.40
2019-03-01T11:07:55.008Z,33.67
2019-03-01T11:10:33.032Z,38.10
2019-03-01T11:13:07.909Z,35.83
2019-03-01T11:15:49.589Z,36.90
2019-03-01T11:18:20.954Z,35.40
2019-03-01T11:21:11.247Z,31.17
2019-03-01T11:23:42.592Z,36.40
2019-03-01T11:26:13.826Z,34.80
2019-03-01T11:28:45.121Z,35.23
2019-03-01T11:31:16.372Z,34.17
2019-03-01T11:33:47.629Z,38.17
2019-03-01T11:36:19.128Z,31.67
2019-03-01T11:38:50.757Z,35.53
2019-03-01T11:41:24.253Z,35.00
2019-03-01T11:43:55.585Z,36.90
2019-03-01T11:46:27.178Z,31.70
2019-03-01T11:48:58.319Z,25.47
2019-03-01T11:51:30.068Z,28.47
2019-03-01T11:54:01.409Z,23.63
2019-03-01T11:56:32.952Z,26.93
2019-03-01T11:59:04.212Z,29.73
2019-03-01T12:01:35.561Z,24.77
2019-03-01T12:04:06.866Z,22.87
2019-03-01T12:06:38.200Z,23.60
2019-03-01T12:09:09.938Z,20.97
2019-03-01T12:11:41.516Z,21.10
2019-03-01T12:14:12.796Z,20.20
2019-03-01T12:16:44.189Z,15.60
2019-03-01T12:19:15.573Z,15.10
2019-03-01T12:21:47.105Z,14.70
2019-03-01T12:24:18.819Z,15.53
2019-03-01T12:26:50.539Z,13.67
2019-03-01T12:29:21.796Z,13.30
2019-03-01T12:31:53.135Z,12.90
2019-03-01T12:34:24.508Z,11.27
2019-03-01T12:36:55.821Z,13.60
2019-03-01T12:39:27.073Z,14.50
2019-03-01T12:41:58.429Z,11.67
2019-03-01T12:44:29.672Z,13.30
2019-03-01T12:47:01.031Z,13.20
2019-03-01T12:49:32.333Z,11.43
2019-03-01T12:52:03.646Z,11.90
2019-03-01T12:54:34.943Z,13.40
2019-03-01T12:57:06.304Z,12.60
2019-03-01T12:59:40.839Z,12.10
2019-03-01T13:02:12.066Z,13.53
2019-03-01T13:04:43.465Z,11.20
2019-03-01T13:07:14.837Z,11.83
2019-03-01T13:09:46.106Z,9.33
2019-03-01T13:12:17.424Z,10.60
2019-03-01T13:14:48.719Z,9.83
2019-03-01T13:17:19.911Z,10.97
2019-03-01T13:19:57.484Z,12.03
2019-03-01T13:22:27.938Z,11.47
2019-03-01T13:24:59.812Z,11.60
2019-03-01T13:27:31.127Z,11.97
2019-03-01T13:30:02.547Z,9.40
2019-03-01T13:32:33.835Z,10.63
2019-03-01T13:35:05.551Z,11.33
2019-03-01T13:37:36.758Z,11.60
2019-03-01T13:40:09.591Z,11.83
2019-03-01T13:42:40.904Z,9.40
2019-03-01T13:45:17.726Z,11.10
2019-03-01T13:47:49.031Z,12.20
2019-03-01T13:50:20.609Z,11.50
2019-03-01T13:52:51.909Z,11.37
2019-03-01T13:55:23.899Z,13.50
2019-03-01T13:57:55.349Z,11.50
2019-03-01T14:00:26.573Z,12.90
2019-03-01T14:02:57.879Z,11.30
2019-03-01T14:05:29.135Z,11.13
2019-03-01T14:08:08.714Z,12.63
2019-03-01T14:10:33.420Z,12.20
2019-03-01T14:13:04.845Z,12.47
2019-03-01T14:15:38.401Z,11.50
2019-03-01T14:18:09.208Z,13.13
2019-03-01T14:20:40.570Z,11.17
2019-03-01T14:23:11.873Z,12.03
2019-03-01T14:25:43.152Z,11.83
2019-03-01T14:28:14.488Z,12.40
2019-03-01T14:30:59.534Z,12.70
2019-03-01T14:33:36.083Z,10.70
2019-03-01T14:36:09.107Z,10.70
2019-03-01T14:38:59.620Z,12.30
2019-03-01T14:41:34.258Z,11.70
2019-03-01T14:44:04.150Z,11.93
2019-03-01T14:46:36.365Z,11.73
2019-03-01T14:49:10.809Z,12.50
2019-03-01T14:51:46.527Z,11.70
2019-03-01T14:54:15.125Z,12.77
2019-03-01T14:56:58.588Z,12.30
2019-03-01T14:59:38.348Z,11.40
2019-03-01T15:02:46.561Z,13.23
2019-03-01T15:05:19.861Z,11.87
2019-03-01T15:07:52.324Z,11.47
2019-03-01T15:10:23.742Z,11.90
2019-03-01T15:12:57.940Z,12.20
2019-03-01T15:15:30.001Z,11.77
2019-03-01T15:18:01.483Z,11.23
2019-03-01T15:20:32.842Z,10.87
2019-03-01T15:23:04.141Z,10.23
2019-03-01T15:25:35.523Z,11.30
2019-03-01T15:28:09.826Z,11.17
2019-03-01T15:30:42.542Z,11.03
2019-03-01T15:33:14.482Z,9.80
2019-03-01T15:35:46.119Z,11.43
2019-03-01T15:38:17.345Z,10.40
2019-03-01T15:40:49.319Z,10.90
2019-03-01T15:43:20.562Z,11.10
2019-03-01T15:45:52.024Z,9.83
2019-03-01T15:48:23.604Z,9.20
2019-03-01T15:50:55.419Z,8.97
2019-03-01T15:53:26.849Z,9.30
2019-03-01T15:55:58.517Z,9.10
2019-03-01T15:58:33.030Z,8.87
2019-03-01T16:01:05.908Z,10.00
2019-03-01T16:03:39.571Z,8.50
2019-03-01T16:06:17.502Z,10.17
2019-03-01T16:08:47.817Z,9.03
2019-03-01T16:11:17.731Z,8.57
2019-03-01T16:13:49.446Z,8.60
2019-03-01T16:16:21.064Z,7.73
2019-03-01T16:18:52.943Z,8.60
2019-03-01T16:21:24.653Z,7.30
2019-03-01T16:23:56.264Z,7.03
2019-03-01T16:26:30.031Z,6.93
2019-03-01T16:29:03.882Z,7.20
2019-03-01T16:31:34.431Z,6.40
2019-03-01T16:34:05.869Z,6.17
2019-03-01T16:36:43.720Z,6.50
2019-03-01T16:39:16.598Z,6.40
2019-03-01T16:41:51.942Z,6.73
2019-03-01T16:44:25.656Z,6.37
2019-03-01T16:46:57.156Z,6.97
2019-03-01T16:49:28.626Z,8.33
2019-03-01T16:51:59.993Z,7.00
2019-03-01T16:54:31.445Z,6.97
2019-03-01T16:57:05.964Z,7.13
2019-03-01T16:59:39.564Z,6.57
2019-03-01T17:02:15.766Z,6.87
2019-03-01T17:04:50.066Z,7.40
2019-03-01T17:07:25.132Z,6.97
2019-03-01T17:09:55.555Z,5.60
2019-03-01T17:12:27.151Z,5.87
2019-03-01T17:14:58.534Z,6.30
2019-03-01T17:17:33.041Z,6.07
2019-03-01T17:20:05.775Z,6.00
2019-03-01T17:22:39.945Z,5.60
2019-03-01T17:25:11.467Z,4.97
2019-03-01T17:27:44.150Z,5.83
2019-03-01T17:30:20.035Z,5.10
2019-03-01T17:32:51.620Z,5.17
2019-03-01T17:35:25.946Z,4.87
2019-03-01T17:37:57.296Z,4.20
2019-03-01T17:40:29.272Z,4.07
2019-03-01T17:43:02.062Z,4.40
2019-03-01T17:45:42.512Z,4.60
2019-03-01T17:48:22.175Z,4.57
2019-03-01T17:50:52.377Z,4.70
2019-03-01T17:53:29.089Z,5.30
2019-03-01T17:56:00.509Z,3.87
2019-03-01T17:58:56.541Z,4.53
2019-03-01T18:01:29.390Z,4.87
2019-03-01T18:04:07.011Z,4.60
2019-03-01T18:06:48.709Z,4.30
2019-03-01T18:09:23.667Z,6.57
2019-03-01T18:11:54.928Z,4.87
2019-03-01T18:14:26.467Z,3.87
2019-03-01T18:17:00.471Z,3.40
2019-03-01T18:19:31.447Z,4.50
2019-03-01T18:22:02.794Z,4.30
2019-03-01T18:24:34.168Z,4.70
2019-03-01T18:27:05.630Z,4.60
2019-03-01T18:29:39.028Z,4.03
2019-03-01T18:32:10.883Z,4.60
2019-03-01T18:34:43.299Z,4.20
2019-03-01T18:37:19.420Z,4.07
2019-03-01T18:39:51.167Z,3.80
2019-03-01T18:42:25.881Z,4.97
2019-03-01T18:44:57.351Z,4.90
2019-03-01T18:47:31.528Z,5.23
2019-03-01T18:50:03.130Z,4.60
2019-03-01T18:52:35.261Z,4.63
2019-03-01T18:55:13.723Z,4.60
2019-03-01T18:58:01.275Z,3.80
2019-03-01T19:00:41.440Z,5.47
2019-03-01T19:03:13.273Z,3.50
2019-03-01T19:05:46.614Z,3.93
2019-03-01T19:08:17.981Z,4.60
2019-03-01T19:10:54.417Z,3.90
2019-03-01T19:13:25.702Z,4.60
2019-03-01T19:15:57.241Z,3.73
2019-03-01T19:18:28.623Z,4.50
2019-03-01T19:21:04.711Z,3.87
2019-03-01T19:23:33.579Z,4.83
2019-03-01T19:26:26.148Z,4.10
2019-03-01T19:29:07.905Z,5.70
2019-03-01T19:31:37.710Z,5.00
2019-03-01T19:34:13.115Z,6.27
2019-03-01T19:36:43.874Z,6.33
2019-03-01T19:39:23.630Z,5.33
2019-03-01T19:41:59.249Z,6.53
2019-03-01T19:44:30.086Z,5.70
2019-03-01T19:47:02.180Z,5.43
2019-03-01T19:49:41.179Z,6.50
2019-03-01T19:52:13.114Z,6.63
2019-03-01T19:54:49.380Z,8.50
2019-03-01T19:57:33.598Z,7.10
2019-03-01T20:00:21.875Z,7.70
2019-03-01T20:02:58.061Z,7.67
2019-03-01T20:05:33.026Z,7.70
2019-03-01T20:08:04.882Z,7.70
2019-03-01T20:11:30.423Z,8.07
2019-03-01T20:15:09.727Z,7.53
2019-03-01T20:17:19.094Z,9.37
2019-03-01T20:19:56.915Z,9.43
2019-03-01T20:22:27.191Z,10.80
2019-03-01T20:24:58.734Z,14.00
2019-03-01T20:27:30.248Z,10.73
2019-03-01T20:30:01.639Z,11.20
2019-03-01T20:32:33.244Z,11.20
2019-03-01T20:35:05.859Z,12.97
2019-03-01T20:37:40.171Z,11.20
2019-03-01T20:40:14.161Z,10.77
2019-03-01T20:42:45.930Z,10.87
2019-03-01T20:45:25.918Z,10.70
2019-03-01T20:48:03.024Z,10.30
2019-03-01T20:50:36.493Z,10.57
2019-03-01T20:53:13.406Z,10.67
2019-03-01T20:55:43.317Z,11.53
2019-03-01T20:58:22.084Z,12.73
2019-03-01T21:00:58.826Z,12.57
2019-03-01T21:03:29.942Z,14.90
2019-03-01T21:06:05.596Z,14.10
2019-03-01T21:08:38.538Z,14.97
2019-03-01T21:11:15.115Z,14.97
2019-03-01T21:13:49.076Z,14.30
2019-03-01T21:16:21.346Z,13.40
2019-03-01T21:18:56.501Z,14.27
2019-03-01T21:21:28.923Z,15.70
2019-03-01T21:24:00.638Z,13.30
2019-03-01T21:26:32.097Z,13.30
2019-03-01T21:29:08.952Z,13.60
2019-03-01T21:31:39.237Z,14.80
2019-03-01T21:34:10.728Z,13.80
2019-03-01T21:36:43.403Z,13.50
2019-03-01T21:39:24.149Z,13.20
2019-03-01T21:41:55.463Z,11.43
2019-03-01T21:44:30.037Z,11.80
2019-03-01T21:47:06.841Z,12.80
2019-03-01T21:49:40.017Z,11.83
2019-03-01T21:52:11.348Z,12.30
2019-03-01T21:54:42.879Z,9.87
2019-03-01T21:57:14.810Z,7.53
2019-03-01T21:59:49.621Z,7.13
2019-03-01T22:02:20.940Z,7.33
2019-03-01T22:04:57.553Z,7.20
2019-03-01T22:07:33.696Z,8.93
2019-03-01T22:10:05.501Z,8.77
2019-03-01T22:12:36.781Z,9.30
2019-03-01T22:15:14.778Z,8.07
2019-03-01T22:17:48.674Z,9.23
2019-03-01T22:20:19.299Z,9.33
2019-03-01T22:22:52.136Z,8.50
2019-03-01T22:25:26.696Z,9.83
2019-03-01T22:28:01.093Z,8.13
2019-03-01T22:30:33.305Z,7.73
2019-03-01T22:33:04.598Z,9.13
2019-03-01T22:35:44.625Z,9.13
2019-03-01T22:38:29.980Z,8.13
2019-03-01T22:41:04.835Z,7.60
2019-03-01T22:43:37.654Z,7.47
2019-03-01T22:46:11.149Z,9.80
2019-03-01T22:48:53.243Z,6.87
2019-03-01T22:51:24.551Z,8.00
2019-03-01T22:53:55.915Z,6.40
2019-03-01T22:56:29.245Z,7.47
2019-03-01T22:59:03.499Z,6.47
2019-03-01T23:01:41.696Z,6.90
2019-03-01T23:04:14.090Z,7.60
2019-03-01T23:06:47.619Z,7.07
2019-03-01T23:09:19.166Z,6.40
2019-03-01T23:11:54.171Z,7.60
2019-03-01T23:14:27.387Z,7.00
2019-03-01T23:16:58.883Z,6.93
2019-03-01T23:19:31.434Z,7.30
2019-03-01T23:22:07.660Z,6.60
2019-03-01T23:24:38.390Z,6.73
2019-03-01T23:27:10.222Z,6.90
2019-03-01T23:29:57.876Z,6.70
2019-03-01T23:32:34.268Z,6.43
2019-03-01T23:35:06.052Z,5.87
2019-03-01T23:37:38.818Z,6.20
2019-03-01T23:40:16.500Z,6.40
2019-03-01T23:42:53.372Z,6.63
2019-03-01T23:45:24.867Z,6.80
2019-03-01T23:47:56.268Z,6.77
2019-03-01T23:50:28.031Z,6.50
2019-03-01T23:53:01.338Z,6.53
2019-03-01T23:55:33.212Z,6.83
2019-03-01T23:58:09.214Z,7.70
